sensor_id;sensor_type;location;lat;lon;timestamp;temperature;humidity
3528;DHT22;1778;47.966;7.854;2023-07-16T00:00:40;19.80;99.90
3528;DHT22;1778;47.966;7.854;2023-07-16T00:01:41;19.80;99.90
3528;DHT22;1778;47.966;7.854;2023-07-16T00:02:43;19.80;99.90
3528;DHT22;1778;47.966;7.854;2023-07-16T00:03:45;19.70;99.90
3528;DHT22;1778;47.966;7.854;2023-07-16T00:04:46;19.70;99.90
3528;DHT22;1778;47.966;7.854;2023-07-16T00:05:51;19.70;99.90
3528;DHT22;1778;47.966;7.854;2023-07-16T00:06:53;19.60;99.90
3528;DHT22;1778;47.966;7.854;2023-07-16T00:07:54;19.60;99.90
3528;DHT22;1778;47.966;7.854;2023-07-16T00:08:56;19.60;99.90
3528;DHT22;1778;47.966;7.854;2023-07-16T00:09:57;19.60;99.90
3528;DHT22;1778;47.966;7.854;2023-07-16T00:10:59;19.50;99.90
3528;DHT22;1778;47.966;7.854;2023-07-16T00:12:01;19.50;99.90
3528;DHT22;1778;47.966;7.854;2023-07-16T00:13:05;19.60;99.90
3528;DHT22;1778;47.966;7.854;2023-07-16T00:14:10;19.60;99.90
3528;DHT22;1778;47.966;7.854;2023-07-16T00:15:12;19.60;99.90
3528;DHT22;1778;47.966;7.854;2023-07-16T00:16:14;19.50;99.90
3528;DHT22;1778;47.966;7.854;2023-07-16T00:17:16;19.60;99.90
3528;DHT22;1778;47.966;7.854;2023-07-16T00:18:18;19.50;99.90
3528;DHT22;1778;47.966;7.854;2023-07-16T00:19:20;19.50;99.90
3528;DHT22;1778;47.966;7.854;2023-07-16T00:20:22;19.60;99.90
3528;DHT22;1778;47.966;7.854;2023-07-16T00:21:25;19.40;99.90
3528;DHT22;1778;47.966;7.854;2023-07-16T00:22:26;19.50;99.90
3528;DHT22;1778;47.966;7.854;2023-07-16T00:23:28;19.40;99.90
3528;DHT22;1778;47.966;7.854;2023-07-16T00:24:30;19.40;99.90
3528;DHT22;1778;47.966;7.854;2023-07-16T00:25:31;19.40;99.90
3528;DHT22;1778;47.966;7.854;2023-07-16T00:26:33;19.30;99.90
3528;DHT22;1778;47.966;7.854;2023-07-16T00:27:34;19.30;99.90
3528;DHT22;1778;47.966;7.854;2023-07-16T00:28:36;19.30;99.90
3528;DHT22;1778;47.966;7.854;2023-07-16T00:29:37;19.30;99.90
3528;DHT22;1778;47.966;7.854;2023-07-16T00:30:39;19.20;99.90
3528;DHT22;1778;47.966;7.854;2023-07-16T00:31:41;19.20;99.90
3528;DHT22;1778;47.966;7.854;2023-07-16T00:32:43;19.10;99.90
3528;DHT22;1778;47.966;7.854;2023-07-16T00:33:44;19.10;99.90
3528;DHT22;1778;47.966;7.854;2023-07-16T00:34:46;19.10;99.90
3528;DHT22;1778;47.966;7.854;2023-07-16T00:35:48;19.10;99.90
3528;DHT22;1778;47.966;7.854;2023-07-16T00:36:53;19.10;99.90
3528;DHT22;1778;47.966;7.854;2023-07-16T00:37:54;19.10;99.90
3528;DHT22;1778;47.966;7.854;2023-07-16T00:38:57;19.00;99.90
3528;DHT22;1778;47.966;7.854;2023-07-16T00:39:58;19.00;99.90
3528;DHT22;1778;47.966;7.854;2023-07-16T00:41:00;19.00;99.90
3528;DHT22;1778;47.966;7.854;2023-07-16T00:42:02;18.90;99.90
3528;DHT22;1778;47.966;7.854;2023-07-16T00:43:04;19.00;99.90
3528;DHT22;1778;47.966;7.854;2023-07-16T00:44:05;18.90;99.90
3528;DHT22;1778;47.966;7.854;2023-07-16T00:45:11;18.80;99.90
3528;DHT22;1778;47.966;7.854;2023-07-16T00:46:14;18.80;99.90
3528;DHT22;1778;47.966;7.854;2023-07-16T00:47:17;18.80;99.90
3528;DHT22;1778;47.966;7.854;2023-07-16T00:48:20;18.80;99.90
3528;DHT22;1778;47.966;7.854;2023-07-16T00:49:22;18.80;99.90
3528;DHT22;1778;47.966;7.854;2023-07-16T00:50:26;18.80;99.90
3528;DHT22;1778;47.966;7.854;2023-07-16T00:51:29;18.80;99.90
3528;DHT22;1778;47.966;7.854;2023-07-16T00:52:31;18.80;99.90
3528;DHT22;1778;47.966;7.854;2023-07-16T00:53:34;18.80;99.90
3528;DHT22;1778;47.966;7.854;2023-07-16T00:54:36;18.80;99.90
3528;DHT22;1778;47.966;7.854;2023-07-16T00:55:38;18.70;99.90
3528;DHT22;1778;47.966;7.854;2023-07-16T00:56:40;18.70;99.90
3528;DHT22;1778;47.966;7.854;2023-07-16T00:57:43;18.60;99.90
3528;DHT22;1778;47.966;7.854;2023-07-16T00:58:45;18.60;99.90
3528;DHT22;1778;47.966;7.854;2023-07-16T00:59:47;18.50;99.90
3528;DHT22;1778;47.966;7.854;2023-07-16T01:00:50;18.50;99.90
3528;DHT22;1778;47.966;7.854;2023-07-16T01:01:52;18.50;99.90
3528;DHT22;1778;47.966;7.854;2023-07-16T01:02:54;18.50;99.90
3528;DHT22;1778;47.966;7.854;2023-07-16T01:03:57;18.40;99.90
3528;DHT22;1778;47.966;7.854;2023-07-16T01:04:59;18.50;99.90
3528;DHT22;1778;47.966;7.854;2023-07-16T01:06:25;18.50;99.90
3528;DHT22;1778;47.966;7.854;2023-07-16T01:07:28;18.40;99.90
3528;DHT22;1778;47.966;7.854;2023-07-16T01:08:41;18.40;99.90
3528;DHT22;1778;47.966;7.854;2023-07-16T01:09:45;18.40;99.90
3528;DHT22;1778;47.966;7.854;2023-07-16T01:10:47;18.30;99.90
3528;DHT22;1778;47.966;7.854;2023-07-16T01:11:51;18.30;99.90
3528;DHT22;1778;47.966;7.854;2023-07-16T01:12:55;18.20;99.90
3528;DHT22;1778;47.966;7.854;2023-07-16T01:13:58;18.30;99.90
3528;DHT22;1778;47.966;7.854;2023-07-16T01:15:01;18.30;99.90
3528;DHT22;1778;47.966;7.854;2023-07-16T01:16:04;18.20;99.90
3528;DHT22;1778;47.966;7.854;2023-07-16T01:17:06;18.20;99.90
3528;DHT22;1778;47.966;7.854;2023-07-16T01:18:08;18.20;99.90
3528;DHT22;1778;47.966;7.854;2023-07-16T01:19:10;18.20;99.90
3528;DHT22;1778;47.966;7.854;2023-07-16T01:20:13;18.10;99.90
3528;DHT22;1778;47.966;7.854;2023-07-16T01:21:16;18.20;99.90
3528;DHT22;1778;47.966;7.854;2023-07-16T01:28:05;18.10;99.90
3528;DHT22;1778;47.966;7.854;2023-07-16T01:30:29;18.00;99.90
3528;DHT22;1778;47.966;7.854;2023-07-16T01:31:32;17.90;99.90
3528;DHT22;1778;47.966;7.854;2023-07-16T01:32:36;17.80;99.90
3528;DHT22;1778;47.966;7.854;2023-07-16T01:33:41;17.80;99.90
3528;DHT22;1778;47.966;7.854;2023-07-16T01:34:47;17.80;99.90
3528;DHT22;1778;47.966;7.854;2023-07-16T01:35:48;17.80;99.90
3528;DHT22;1778;47.966;7.854;2023-07-16T01:36:52;17.70;99.90
3528;DHT22;1778;47.966;7.854;2023-07-16T01:37:53;17.70;99.90
3528;DHT22;1778;47.966;7.854;2023-07-16T01:38:55;17.70;99.90
3528;DHT22;1778;47.966;7.854;2023-07-16T01:39:57;17.70;99.90
3528;DHT22;1778;47.966;7.854;2023-07-16T01:40:59;17.70;99.90
3528;DHT22;1778;47.966;7.854;2023-07-16T01:42:01;17.70;99.90
3528;DHT22;1778;47.966;7.854;2023-07-16T01:43:03;17.70;99.90
3528;DHT22;1778;47.966;7.854;2023-07-16T01:44:05;17.60;99.90
3528;DHT22;1778;47.966;7.854;2023-07-16T01:45:07;17.60;99.90
3528;DHT22;1778;47.966;7.854;2023-07-16T01:46:08;17.60;99.90
3528;DHT22;1778;47.966;7.854;2023-07-16T01:47:13;17.70;99.90
3528;DHT22;1778;47.966;7.854;2023-07-16T01:49:27;17.60;99.90
3528;DHT22;1778;47.966;7.854;2023-07-16T01:50:28;17.60;99.90
3528;DHT22;1778;47.966;7.854;2023-07-16T01:51:30;17.60;99.90
3528;DHT22;1778;47.966;7.854;2023-07-16T01:52:32;17.60;99.90
3528;DHT22;1778;47.966;7.854;2023-07-16T01:53:34;17.70;99.90
3528;DHT22;1778;47.966;7.854;2023-07-16T01:54:37;17.60;99.90
3528;DHT22;1778;47.966;7.854;2023-07-16T01:55:39;17.60;99.90
3528;DHT22;1778;47.966;7.854;2023-07-16T01:56:40;17.50;99.90
3528;DHT22;1778;47.966;7.854;2023-07-16T01:57:42;17.50;99.90
3528;DHT22;1778;47.966;7.854;2023-07-16T01:58:44;17.50;99.90
3528;DHT22;1778;47.966;7.854;2023-07-16T01:59:45;17.50;99.90
3528;DHT22;1778;47.966;7.854;2023-07-16T02:00:49;17.40;99.90
3528;DHT22;1778;47.966;7.854;2023-07-16T02:01:51;17.40;99.90
3528;DHT22;1778;47.966;7.854;2023-07-16T02:02:52;17.40;99.90
3528;DHT22;1778;47.966;7.854;2023-07-16T02:03:54;17.40;99.90
3528;DHT22;1778;47.966;7.854;2023-07-16T02:04:56;17.40;99.90
3528;DHT22;1778;47.966;7.854;2023-07-16T02:05:58;17.40;99.90
3528;DHT22;1778;47.966;7.854;2023-07-16T02:07:00;17.40;99.90
3528;DHT22;1778;47.966;7.854;2023-07-16T02:08:02;17.40;99.90
3528;DHT22;1778;47.966;7.854;2023-07-16T02:09:06;17.40;99.90
3528;DHT22;1778;47.966;7.854;2023-07-16T02:10:08;17.40;99.90
3528;DHT22;1778;47.966;7.854;2023-07-16T02:11:10;17.40;99.90
3528;DHT22;1778;47.966;7.854;2023-07-16T02:12:11;17.40;99.90
3528;DHT22;1778;47.966;7.854;2023-07-16T02:13:13;17.40;99.90
3528;DHT22;1778;47.966;7.854;2023-07-16T02:14:15;17.30;99.90
3528;DHT22;1778;47.966;7.854;2023-07-16T02:15:17;17.30;99.90
3528;DHT22;1778;47.966;7.854;2023-07-16T02:16:19;17.40;99.90
3528;DHT22;1778;47.966;7.854;2023-07-16T02:17:21;17.30;99.90
3528;DHT22;1778;47.966;7.854;2023-07-16T02:18:22;17.30;99.90
3528;DHT22;1778;47.966;7.854;2023-07-16T02:19:24;17.30;99.90
3528;DHT22;1778;47.966;7.854;2023-07-16T02:20:29;17.30;99.90
3528;DHT22;1778;47.966;7.854;2023-07-16T02:21:31;17.30;99.90
3528;DHT22;1778;47.966;7.854;2023-07-16T02:22:35;17.30;99.90
3528;DHT22;1778;47.966;7.854;2023-07-16T02:23:36;17.30;99.90
3528;DHT22;1778;47.966;7.854;2023-07-16T02:24:38;17.30;99.90
3528;DHT22;1778;47.966;7.854;2023-07-16T02:25:40;17.20;99.90
3528;DHT22;1778;47.966;7.854;2023-07-16T02:26:42;17.20;99.90
3528;DHT22;1778;47.966;7.854;2023-07-16T02:27:45;17.20;99.90
3528;DHT22;1778;47.966;7.854;2023-07-16T02:28:47;17.10;99.90
3528;DHT22;1778;47.966;7.854;2023-07-16T02:29:48;17.10;99.90
3528;DHT22;1778;47.966;7.854;2023-07-16T02:30:50;17.10;99.90
3528;DHT22;1778;47.966;7.854;2023-07-16T02:31:52;17.10;99.90
3528;DHT22;1778;47.966;7.854;2023-07-16T02:32:54;17.10;99.90
3528;DHT22;1778;47.966;7.854;2023-07-16T02:33:55;17.10;99.90
3528;DHT22;1778;47.966;7.854;2023-07-16T02:34:57;17.10;99.90
3528;DHT22;1778;47.966;7.854;2023-07-16T02:35:59;17.10;99.90
3528;DHT22;1778;47.966;7.854;2023-07-16T02:37:00;17.10;99.90
3528;DHT22;1778;47.966;7.854;2023-07-16T02:38:02;17.10;99.90
3528;DHT22;1778;47.966;7.854;2023-07-16T02:39:03;17.10;99.90
3528;DHT22;1778;47.966;7.854;2023-07-16T02:40:06;17.10;99.90
3528;DHT22;1778;47.966;7.854;2023-07-16T02:41:08;17.10;99.90
3528;DHT22;1778;47.966;7.854;2023-07-16T02:42:10;17.10;99.90
3528;DHT22;1778;47.966;7.854;2023-07-16T02:43:12;17.10;99.90
3528;DHT22;1778;47.966;7.854;2023-07-16T02:44:14;17.10;99.90
3528;DHT22;1778;47.966;7.854;2023-07-16T02:45:15;17.00;99.90
3528;DHT22;1778;47.966;7.854;2023-07-16T02:46:17;17.00;99.90
3528;DHT22;1778;47.966;7.854;2023-07-16T02:47:20;17.00;99.90
3528;DHT22;1778;47.966;7.854;2023-07-16T02:48:24;17.00;99.90
3528;DHT22;1778;47.966;7.854;2023-07-16T02:49:26;17.00;99.90
3528;DHT22;1778;47.966;7.854;2023-07-16T02:50:27;17.00;99.90
3528;DHT22;1778;47.966;7.854;2023-07-16T02:51:29;17.00;99.90
3528;DHT22;1778;47.966;7.854;2023-07-16T02:52:30;17.10;99.90
3528;DHT22;1778;47.966;7.854;2023-07-16T02:53:32;17.10;99.90
3528;DHT22;1778;47.966;7.854;2023-07-16T02:54:35;17.00;99.90
3528;DHT22;1778;47.966;7.854;2023-07-16T02:55:37;17.00;99.90
3528;DHT22;1778;47.966;7.854;2023-07-16T02:56:39;17.00;99.90
3528;DHT22;1778;47.966;7.854;2023-07-16T02:57:41;17.00;99.90
3528;DHT22;1778;47.966;7.854;2023-07-16T02:58:42;17.00;99.90
3528;DHT22;1778;47.966;7.854;2023-07-16T02:59:44;17.00;99.90
3528;DHT22;1778;47.966;7.854;2023-07-16T03:00:45;17.00;99.90
3528;DHT22;1778;47.966;7.854;2023-07-16T03:01:47;17.00;99.90
3528;DHT22;1778;47.966;7.854;2023-07-16T03:02:49;17.00;99.90
3528;DHT22;1778;47.966;7.854;2023-07-16T03:03:51;17.10;99.90
3528;DHT22;1778;47.966;7.854;2023-07-16T03:04:53;17.10;99.90
3528;DHT22;1778;47.966;7.854;2023-07-16T03:05:54;17.10;99.90
3528;DHT22;1778;47.966;7.854;2023-07-16T03:06:57;17.00;99.90
3528;DHT22;1778;47.966;7.854;2023-07-16T03:07:59;17.00;99.90
3528;DHT22;1778;47.966;7.854;2023-07-16T03:09:01;17.00;99.90
3528;DHT22;1778;47.966;7.854;2023-07-16T03:10:04;17.00;99.90
3528;DHT22;1778;47.966;7.854;2023-07-16T03:11:06;16.90;99.90
3528;DHT22;1778;47.966;7.854;2023-07-16T03:12:08;16.90;99.90
3528;DHT22;1778;47.966;7.854;2023-07-16T03:13:10;16.90;99.90
3528;DHT22;1778;47.966;7.854;2023-07-16T03:14:11;16.90;99.90
3528;DHT22;1778;47.966;7.854;2023-07-16T03:15:13;16.80;99.90
3528;DHT22;1778;47.966;7.854;2023-07-16T03:16:15;16.80;99.90
3528;DHT22;1778;47.966;7.854;2023-07-16T03:17:17;16.80;99.90
3528;DHT22;1778;47.966;7.854;2023-07-16T03:18:19;16.80;99.90
3528;DHT22;1778;47.966;7.854;2023-07-16T03:19:21;17.00;99.90
3528;DHT22;1778;47.966;7.854;2023-07-16T03:20:22;16.90;99.90
3528;DHT22;1778;47.966;7.854;2023-07-16T03:21:24;16.90;99.90
3528;DHT22;1778;47.966;7.854;2023-07-16T03:22:26;16.90;99.90
3528;DHT22;1778;47.966;7.854;2023-07-16T03:23:27;16.90;99.90
3528;DHT22;1778;47.966;7.854;2023-07-16T03:24:29;16.90;99.90
3528;DHT22;1778;47.966;7.854;2023-07-16T03:25:30;16.80;99.90
3528;DHT22;1778;47.966;7.854;2023-07-16T03:26:33;16.80;99.90
3528;DHT22;1778;47.966;7.854;2023-07-16T03:27:35;16.80;99.90
3528;DHT22;1778;47.966;7.854;2023-07-16T03:28:37;16.70;99.90
3528;DHT22;1778;47.966;7.854;2023-07-16T03:29:41;16.70;99.90
3528;DHT22;1778;47.966;7.854;2023-07-16T03:30:49;16.70;99.90
3528;DHT22;1778;47.966;7.854;2023-07-16T03:31:51;16.70;99.90
3528;DHT22;1778;47.966;7.854;2023-07-16T03:32:54;16.70;99.90
3528;DHT22;1778;47.966;7.854;2023-07-16T03:33:58;16.70;99.90
3528;DHT22;1778;47.966;7.854;2023-07-16T03:35:03;16.70;99.90
3528;DHT22;1778;47.966;7.854;2023-07-16T03:36:04;16.70;99.90
3528;DHT22;1778;47.966;7.854;2023-07-16T03:37:06;16.70;99.90
3528;DHT22;1778;47.966;7.854;2023-07-16T03:38:08;16.60;99.90
3528;DHT22;1778;47.966;7.854;2023-07-16T03:39:09;16.70;99.90
3528;DHT22;1778;47.966;7.854;2023-07-16T03:40:17;16.60;99.90
3528;DHT22;1778;47.966;7.854;2023-07-16T03:41:21;16.60;99.90
3528;DHT22;1778;47.966;7.854;2023-07-16T03:42:22;16.60;99.90
3528;DHT22;1778;47.966;7.854;2023-07-16T03:43:24;16.60;99.90
3528;DHT22;1778;47.966;7.854;2023-07-16T03:44:31;16.60;99.90
3528;DHT22;1778;47.966;7.854;2023-07-16T03:45:34;16.50;99.90
3528;DHT22;1778;47.966;7.854;2023-07-16T03:46:36;16.60;99.90
3528;DHT22;1778;47.966;7.854;2023-07-16T03:47:38;16.60;99.90
3528;DHT22;1778;47.966;7.854;2023-07-16T03:48:41;16.60;99.90
3528;DHT22;1778;47.966;7.854;2023-07-16T03:49:42;16.50;99.90
3528;DHT22;1778;47.966;7.854;2023-07-16T03:50:44;16.50;99.90
3528;DHT22;1778;47.966;7.854;2023-07-16T03:51:47;16.50;99.90
3528;DHT22;1778;47.966;7.854;2023-07-16T03:52:49;16.50;99.90
3528;DHT22;1778;47.966;7.854;2023-07-16T03:53:50;16.50;99.90
3528;DHT22;1778;47.966;7.854;2023-07-16T03:54:52;16.50;99.90
3528;DHT22;1778;47.966;7.854;2023-07-16T03:55:55;16.50;99.90
3528;DHT22;1778;47.966;7.854;2023-07-16T03:56:56;16.50;99.90
3528;DHT22;1778;47.966;7.854;2023-07-16T03:57:59;16.50;99.90
3528;DHT22;1778;47.966;7.854;2023-07-16T03:59:00;16.50;99.90
3528;DHT22;1778;47.966;7.854;2023-07-16T04:00:03;16.50;99.90
3528;DHT22;1778;47.966;7.854;2023-07-16T04:01:14;16.60;99.90
3528;DHT22;1778;47.966;7.854;2023-07-16T04:02:15;16.50;99.90
3528;DHT22;1778;47.966;7.854;2023-07-16T04:03:17;16.50;99.90
3528;DHT22;1778;47.966;7.854;2023-07-16T04:04:19;16.60;99.90
3528;DHT22;1778;47.966;7.854;2023-07-16T04:05:20;16.60;99.90
3528;DHT22;1778;47.966;7.854;2023-07-16T04:06:25;16.50;99.90
3528;DHT22;1778;47.966;7.854;2023-07-16T04:07:26;16.50;99.90
3528;DHT22;1778;47.966;7.854;2023-07-16T04:08:28;16.50;99.90
3528;DHT22;1778;47.966;7.854;2023-07-16T04:09:29;16.60;99.90
3528;DHT22;1778;47.966;7.854;2023-07-16T04:10:31;16.60;99.90
3528;DHT22;1778;47.966;7.854;2023-07-16T04:11:33;16.60;99.90
3528;DHT22;1778;47.966;7.854;2023-07-16T04:12:34;16.50;99.90
3528;DHT22;1778;47.966;7.854;2023-07-16T04:13:36;16.50;99.90
3528;DHT22;1778;47.966;7.854;2023-07-16T04:14:37;16.50;99.90
3528;DHT22;1778;47.966;7.854;2023-07-16T04:15:39;16.50;99.90
3528;DHT22;1778;47.966;7.854;2023-07-16T04:16:40;16.60;99.90
3528;DHT22;1778;47.966;7.854;2023-07-16T04:17:42;16.50;99.90
3528;DHT22;1778;47.966;7.854;2023-07-16T04:18:44;16.50;99.90
3528;DHT22;1778;47.966;7.854;2023-07-16T04:19:45;16.60;99.90
3528;DHT22;1778;47.966;7.854;2023-07-16T04:20:47;16.50;99.90
3528;DHT22;1778;47.966;7.854;2023-07-16T04:21:49;16.50;99.90
3528;DHT22;1778;47.966;7.854;2023-07-16T04:22:50;16.50;99.90
3528;DHT22;1778;47.966;7.854;2023-07-16T04:23:52;16.60;99.90
3528;DHT22;1778;47.966;7.854;2023-07-16T04:24:53;16.50;99.90
3528;DHT22;1778;47.966;7.854;2023-07-16T04:25:55;16.60;99.90
3528;DHT22;1778;47.966;7.854;2023-07-16T04:26:58;16.60;99.90
3528;DHT22;1778;47.966;7.854;2023-07-16T04:28:00;16.60;99.90
3528;DHT22;1778;47.966;7.854;2023-07-16T04:29:02;16.60;99.90
3528;DHT22;1778;47.966;7.854;2023-07-16T04:30:04;16.70;99.90
3528;DHT22;1778;47.966;7.854;2023-07-16T04:31:06;16.60;99.90
3528;DHT22;1778;47.966;7.854;2023-07-16T04:32:08;16.70;99.90
3528;DHT22;1778;47.966;7.854;2023-07-16T04:33:09;16.70;99.90
3528;DHT22;1778;47.966;7.854;2023-07-16T04:34:11;16.70;99.90
3528;DHT22;1778;47.966;7.854;2023-07-16T04:35:13;16.70;99.90
3528;DHT22;1778;47.966;7.854;2023-07-16T04:36:15;16.70;99.90
3528;DHT22;1778;47.966;7.854;2023-07-16T04:37:18;16.70;99.90
3528;DHT22;1778;47.966;7.854;2023-07-16T04:38:19;16.80;99.90
3528;DHT22;1778;47.966;7.854;2023-07-16T04:39:21;16.70;99.90
3528;DHT22;1778;47.966;7.854;2023-07-16T04:40:22;16.70;99.90
3528;DHT22;1778;47.966;7.854;2023-07-16T04:41:24;16.80;99.90
3528;DHT22;1778;47.966;7.854;2023-07-16T04:42:26;16.80;99.90
3528;DHT22;1778;47.966;7.854;2023-07-16T04:43:27;16.90;99.90
3528;DHT22;1778;47.966;7.854;2023-07-16T04:44:29;16.90;99.90
3528;DHT22;1778;47.966;7.854;2023-07-16T04:45:30;16.90;99.90
3528;DHT22;1778;47.966;7.854;2023-07-16T04:46:32;16.90;99.90
3528;DHT22;1778;47.966;7.854;2023-07-16T04:47:34;16.90;99.90
3528;DHT22;1778;47.966;7.854;2023-07-16T04:48:36;17.00;99.90
3528;DHT22;1778;47.966;7.854;2023-07-16T04:49:38;17.00;99.90
3528;DHT22;1778;47.966;7.854;2023-07-16T04:50:39;17.00;99.90
3528;DHT22;1778;47.966;7.854;2023-07-16T04:51:41;17.00;99.90
3528;DHT22;1778;47.966;7.854;2023-07-16T04:52:43;17.10;99.90
3528;DHT22;1778;47.966;7.854;2023-07-16T04:53:44;17.10;99.90
3528;DHT22;1778;47.966;7.854;2023-07-16T04:54:46;17.10;99.90
3528;DHT22;1778;47.966;7.854;2023-07-16T04:55:48;17.10;99.90
3528;DHT22;1778;47.966;7.854;2023-07-16T04:56:49;17.10;99.90
3528;DHT22;1778;47.966;7.854;2023-07-16T04:57:51;17.10;99.90
3528;DHT22;1778;47.966;7.854;2023-07-16T04:58:54;17.10;99.90
3528;DHT22;1778;47.966;7.854;2023-07-16T04:59:56;17.10;99.90
3528;DHT22;1778;47.966;7.854;2023-07-16T05:00:58;17.10;99.90
3528;DHT22;1778;47.966;7.854;2023-07-16T05:01:59;17.20;99.90
3528;DHT22;1778;47.966;7.854;2023-07-16T05:03:01;17.20;99.90
3528;DHT22;1778;47.966;7.854;2023-07-16T05:04:02;17.20;99.90
3528;DHT22;1778;47.966;7.854;2023-07-16T05:05:05;17.20;99.90
3528;DHT22;1778;47.966;7.854;2023-07-16T05:06:06;17.30;99.90
3528;DHT22;1778;47.966;7.854;2023-07-16T05:07:08;17.30;99.90
3528;DHT22;1778;47.966;7.854;2023-07-16T05:08:09;17.30;99.90
3528;DHT22;1778;47.966;7.854;2023-07-16T05:09:11;17.30;99.90
3528;DHT22;1778;47.966;7.854;2023-07-16T05:10:13;17.30;99.90
3528;DHT22;1778;47.966;7.854;2023-07-16T05:11:14;17.30;99.90
3528;DHT22;1778;47.966;7.854;2023-07-16T05:12:16;17.30;99.90
3528;DHT22;1778;47.966;7.854;2023-07-16T05:13:18;17.30;99.90
3528;DHT22;1778;47.966;7.854;2023-07-16T05:14:19;17.30;99.90
3528;DHT22;1778;47.966;7.854;2023-07-16T05:15:21;17.30;99.90
3528;DHT22;1778;47.966;7.854;2023-07-16T05:16:23;17.40;99.90
3528;DHT22;1778;47.966;7.854;2023-07-16T05:17:25;17.40;99.90
3528;DHT22;1778;47.966;7.854;2023-07-16T05:18:27;17.40;99.90
3528;DHT22;1778;47.966;7.854;2023-07-16T05:19:29;17.40;99.90
3528;DHT22;1778;47.966;7.854;2023-07-16T05:20:30;17.40;99.90
3528;DHT22;1778;47.966;7.854;2023-07-16T05:21:32;17.40;99.90
3528;DHT22;1778;47.966;7.854;2023-07-16T05:22:34;17.50;99.90
3528;DHT22;1778;47.966;7.854;2023-07-16T05:23:35;17.50;99.90
3528;DHT22;1778;47.966;7.854;2023-07-16T05:24:37;17.50;99.90
3528;DHT22;1778;47.966;7.854;2023-07-16T05:25:38;17.40;99.90
3528;DHT22;1778;47.966;7.854;2023-07-16T05:26:40;17.50;99.90
3528;DHT22;1778;47.966;7.854;2023-07-16T05:27:41;17.50;99.90
3528;DHT22;1778;47.966;7.854;2023-07-16T05:28:43;17.60;99.90
3528;DHT22;1778;47.966;7.854;2023-07-16T05:29:45;17.70;99.90
3528;DHT22;1778;47.966;7.854;2023-07-16T05:30:47;17.60;99.90
3528;DHT22;1778;47.966;7.854;2023-07-16T05:31:48;17.60;99.90
3528;DHT22;1778;47.966;7.854;2023-07-16T05:32:50;17.60;99.90
3528;DHT22;1778;47.966;7.854;2023-07-16T05:33:52;17.60;99.90
3528;DHT22;1778;47.966;7.854;2023-07-16T05:34:54;17.60;99.90
3528;DHT22;1778;47.966;7.854;2023-07-16T05:35:55;17.60;99.90
3528;DHT22;1778;47.966;7.854;2023-07-16T05:36:57;17.70;99.90
3528;DHT22;1778;47.966;7.854;2023-07-16T05:37:59;17.70;99.90
3528;DHT22;1778;47.966;7.854;2023-07-16T05:39:00;17.80;99.90
3528;DHT22;1778;47.966;7.854;2023-07-16T05:40:03;17.80;99.90
3528;DHT22;1778;47.966;7.854;2023-07-16T05:41:05;17.80;99.90
3528;DHT22;1778;47.966;7.854;2023-07-16T05:42:07;17.80;99.90
3528;DHT22;1778;47.966;7.854;2023-07-16T05:43:09;17.80;99.90
3528;DHT22;1778;47.966;7.854;2023-07-16T05:44:11;17.80;99.90
3528;DHT22;1778;47.966;7.854;2023-07-16T05:45:12;17.80;99.90
3528;DHT22;1778;47.966;7.854;2023-07-16T05:46:14;17.80;99.90
3528;DHT22;1778;47.966;7.854;2023-07-16T05:47:16;17.80;99.90
3528;DHT22;1778;47.966;7.854;2023-07-16T05:48:18;17.80;99.90
3528;DHT22;1778;47.966;7.854;2023-07-16T05:49:20;17.80;99.90
3528;DHT22;1778;47.966;7.854;2023-07-16T05:50:22;17.90;99.90
3528;DHT22;1778;47.966;7.854;2023-07-16T05:51:23;18.00;99.90
3528;DHT22;1778;47.966;7.854;2023-07-16T05:52:25;18.00;99.90
3528;DHT22;1778;47.966;7.854;2023-07-16T05:53:27;18.10;99.90
3528;DHT22;1778;47.966;7.854;2023-07-16T05:54:28;18.10;99.90
3528;DHT22;1778;47.966;7.854;2023-07-16T05:55:30;18.20;99.90
3528;DHT22;1778;47.966;7.854;2023-07-16T05:56:32;18.30;99.90
3528;DHT22;1778;47.966;7.854;2023-07-16T05:57:33;18.30;99.90
3528;DHT22;1778;47.966;7.854;2023-07-16T05:58:35;18.30;99.90
3528;DHT22;1778;47.966;7.854;2023-07-16T05:59:37;18.40;99.90
3528;DHT22;1778;47.966;7.854;2023-07-16T06:00:38;18.40;99.90
3528;DHT22;1778;47.966;7.854;2023-07-16T06:01:40;18.40;99.90
3528;DHT22;1778;47.966;7.854;2023-07-16T06:02:42;18.50;99.90
3528;DHT22;1778;47.966;7.854;2023-07-16T06:03:44;18.50;99.90
3528;DHT22;1778;47.966;7.854;2023-07-16T06:04:46;18.40;99.90
3528;DHT22;1778;47.966;7.854;2023-07-16T06:05:48;18.50;99.90
3528;DHT22;1778;47.966;7.854;2023-07-16T06:06:50;18.60;99.90
3528;DHT22;1778;47.966;7.854;2023-07-16T06:07:53;18.50;99.90
3528;DHT22;1778;47.966;7.854;2023-07-16T06:08:55;18.50;99.90
3528;DHT22;1778;47.966;7.854;2023-07-16T06:09:56;18.50;99.90
3528;DHT22;1778;47.966;7.854;2023-07-16T06:10:58;18.50;99.90
3528;DHT22;1778;47.966;7.854;2023-07-16T06:12:00;18.50;99.90
3528;DHT22;1778;47.966;7.854;2023-07-16T06:13:02;18.50;99.90
3528;DHT22;1778;47.966;7.854;2023-07-16T06:14:03;18.50;99.90
3528;DHT22;1778;47.966;7.854;2023-07-16T06:15:05;18.50;99.90
3528;DHT22;1778;47.966;7.854;2023-07-16T06:16:07;18.50;99.90
3528;DHT22;1778;47.966;7.854;2023-07-16T06:17:09;18.50;99.90
3528;DHT22;1778;47.966;7.854;2023-07-16T06:18:11;18.50;99.90
3528;DHT22;1778;47.966;7.854;2023-07-16T06:19:16;18.60;99.90
3528;DHT22;1778;47.966;7.854;2023-07-16T06:20:18;18.60;99.90
3528;DHT22;1778;47.966;7.854;2023-07-16T06:21:20;18.70;99.90
3528;DHT22;1778;47.966;7.854;2023-07-16T06:22:21;18.90;99.90
3528;DHT22;1778;47.966;7.854;2023-07-16T06:23:23;18.90;99.90
3528;DHT22;1778;47.966;7.854;2023-07-16T06:24:25;19.00;99.90
3528;DHT22;1778;47.966;7.854;2023-07-16T06:25:26;19.10;99.90
3528;DHT22;1778;47.966;7.854;2023-07-16T06:26:28;19.10;99.90
3528;DHT22;1778;47.966;7.854;2023-07-16T06:27:30;19.10;99.90
3528;DHT22;1778;47.966;7.854;2023-07-16T06:28:32;19.10;99.90
3528;DHT22;1778;47.966;7.854;2023-07-16T06:29:34;19.20;99.90
3528;DHT22;1778;47.966;7.854;2023-07-16T06:30:37;19.10;99.90
3528;DHT22;1778;47.966;7.854;2023-07-16T06:31:38;19.10;99.90
3528;DHT22;1778;47.966;7.854;2023-07-16T06:32:40;19.10;99.90
3528;DHT22;1778;47.966;7.854;2023-07-16T06:33:42;19.00;99.90
3528;DHT22;1778;47.966;7.854;2023-07-16T06:34:43;19.10;99.90
3528;DHT22;1778;47.966;7.854;2023-07-16T06:35:46;19.10;99.90
3528;DHT22;1778;47.966;7.854;2023-07-16T06:36:51;19.10;99.90
3528;DHT22;1778;47.966;7.854;2023-07-16T06:37:52;19.10;99.90
3528;DHT22;1778;47.966;7.854;2023-07-16T06:38:54;19.20;99.90
3528;DHT22;1778;47.966;7.854;2023-07-16T06:39:55;19.20;99.90
3528;DHT22;1778;47.966;7.854;2023-07-16T06:40:57;19.30;99.90
3528;DHT22;1778;47.966;7.854;2023-07-16T06:41:59;19.30;99.90
3528;DHT22;1778;47.966;7.854;2023-07-16T06:43:01;19.40;99.90
3528;DHT22;1778;47.966;7.854;2023-07-16T06:44:02;19.50;99.90
3528;DHT22;1778;47.966;7.854;2023-07-16T06:45:04;19.60;99.90
3528;DHT22;1778;47.966;7.854;2023-07-16T06:46:06;19.60;99.90
3528;DHT22;1778;47.966;7.854;2023-07-16T06:47:08;19.60;99.90
3528;DHT22;1778;47.966;7.854;2023-07-16T06:48:10;19.70;99.90
3528;DHT22;1778;47.966;7.854;2023-07-16T06:49:12;19.70;99.90
3528;DHT22;1778;47.966;7.854;2023-07-16T06:50:13;19.80;99.90
3528;DHT22;1778;47.966;7.854;2023-07-16T06:51:15;19.80;99.90
3528;DHT22;1778;47.966;7.854;2023-07-16T06:52:21;19.80;99.90
3528;DHT22;1778;47.966;7.854;2023-07-16T06:53:22;19.90;99.90
3528;DHT22;1778;47.966;7.854;2023-07-16T06:54:24;19.90;99.90